createdAt,value
2019-01-08T00:03:57.483Z,8.17
2019-01-08T00:08:00.888Z,8.30
2019-01-08T00:12:04.315Z,10.30
2019-01-08T00:16:07.755Z,8.83
2019-01-08T00:20:11.193Z,9.23
2019-01-08T00:24:14.603Z,10.10
2019-01-08T00:28:18.023Z,8.83
2019-01-08T00:32:21.454Z,11.53
2019-01-08T00:36:24.879Z,10.83
2019-01-08T00:40:28.317Z,10.37
2019-01-08T00:44:31.795Z,9.47
2019-01-08T00:48:35.215Z,9.70
2019-01-08T00:52:38.675Z,10.27
2019-01-08T00:56:42.114Z,11.43
2019-01-08T01:00:45.544Z,10.57
2019-01-08T01:04:49.042Z,11.00
2019-01-08T01:08:52.471Z,11.40
2019-01-08T01:12:55.895Z,11.83
2019-01-08T01:16:59.319Z,12.23
2019-01-08T01:21:02.737Z,11.20
2019-01-08T01:25:06.228Z,11.13
2019-01-08T01:29:09.653Z,9.87
2019-01-08T01:33:13.077Z,10.03
2019-01-08T01:37:16.495Z,9.73
2019-01-08T01:41:19.913Z,10.07
2019-01-08T01:45:23.331Z,7.10
2019-01-08T01:49:26.755Z,9.60
2019-01-08T01:53:30.175Z,7.53
2019-01-08T01:57:33.584Z,7.73
2019-01-08T02:01:37.002Z,7.03
2019-01-08T02:05:40.434Z,6.63
2019-01-08T02:09:43.846Z,6.03
2019-01-08T02:13:47.311Z,5.87
2019-01-08T02:17:50.723Z,6.03
2019-01-08T02:21:54.144Z,5.50
2019-01-08T02:25:57.566Z,4.50
2019-01-08T02:30:00.998Z,3.13
2019-01-08T02:34:04.496Z,3.03
2019-01-08T02:38:07.912Z,3.20
2019-01-08T02:42:11.370Z,2.80
2019-01-08T02:46:14.877Z,2.20
2019-01-08T02:50:18.539Z,1.93
2019-01-08T02:54:22.055Z,2.33
2019-01-08T02:58:25.760Z,1.87
2019-01-08T03:02:29.197Z,2.00
2019-01-08T03:06:32.616Z,2.37
2019-01-08T03:10:36.039Z,2.40
2019-01-08T03:14:39.471Z,2.20
2019-01-08T03:18:42.923Z,2.00
2019-01-08T03:22:46.345Z,3.23
2019-01-08T03:26:49.790Z,2.73
2019-01-08T03:30:53.219Z,2.30
2019-01-08T03:34:57.735Z,2.43
2019-01-08T03:39:01.167Z,2.70
2019-01-08T03:43:04.587Z,2.90
2019-01-08T03:47:08.020Z,2.90
2019-01-08T03:51:11.439Z,4.07
2019-01-08T03:55:14.859Z,2.40
2019-01-08T03:59:18.289Z,2.80
2019-01-08T04:03:21.710Z,3.93
2019-01-08T04:07:25.183Z,3.07
2019-01-08T04:11:28.603Z,2.00
2019-01-08T04:15:32.031Z,2.03
2019-01-08T04:19:35.453Z,2.13
2019-01-08T04:23:38.879Z,2.47
2019-01-08T04:27:42.327Z,2.17
2019-01-08T04:31:45.792Z,2.10
2019-01-08T04:35:49.220Z,2.40
2019-01-08T04:39:52.639Z,3.67
2019-01-08T04:43:56.053Z,2.13
2019-01-08T04:47:59.466Z,1.70
2019-01-08T04:52:02.887Z,1.57
2019-01-08T04:56:06.319Z,1.70
2019-01-08T05:00:10.715Z,1.50
2019-01-08T05:04:14.119Z,1.30
2019-01-08T05:08:17.739Z,2.60
2019-01-08T05:12:21.159Z,1.50
2019-01-08T05:16:24.585Z,1.60
2019-01-08T05:20:28.004Z,2.03
2019-01-08T05:24:31.412Z,1.50
2019-01-08T05:28:35.121Z,1.97
2019-01-08T05:32:38.536Z,1.67
2019-01-08T05:36:41.971Z,2.23
2019-01-08T05:40:45.398Z,2.47
2019-01-08T05:44:48.805Z,2.03
2019-01-08T05:48:52.227Z,1.97
2019-01-08T05:52:55.648Z,2.90
2019-01-08T05:56:59.087Z,4.93
2019-01-08T06:01:02.505Z,3.30
2019-01-08T06:05:06.147Z,8.97
2019-01-08T06:09:09.635Z,3.63
2019-01-08T06:13:13.226Z,5.70
2019-01-08T06:17:16.683Z,7.13
2019-01-08T06:21:20.195Z,3.10
2019-01-08T06:25:23.720Z,7.17
2019-01-08T06:29:27.316Z,3.90
2019-01-08T06:33:30.815Z,4.97
2019-01-08T06:37:34.219Z,3.73
2019-01-08T06:41:37.677Z,3.60
2019-01-08T06:45:41.107Z,6.73
2019-01-08T06:49:47.316Z,9.03
2019-01-08T06:53:50.733Z,8.57
2019-01-08T06:57:54.155Z,4.53
2019-01-08T07:01:57.582Z,8.03
2019-01-08T07:06:01.054Z,7.57
2019-01-08T07:10:09.375Z,9.03
2019-01-08T07:14:12.795Z,7.77
2019-01-08T07:18:16.281Z,8.47
2019-01-08T07:22:19.785Z,9.67
2019-01-08T07:26:23.282Z,7.53
2019-01-08T07:30:26.682Z,7.67
2019-01-08T07:34:30.111Z,6.57
2019-01-08T07:38:33.644Z,9.50
2019-01-08T07:42:38.120Z,9.20
2019-01-08T07:46:41.564Z,16.43
2019-01-08T07:50:44.966Z,9.83
2019-01-08T07:54:48.412Z,13.43
2019-01-08T07:58:51.840Z,10.37
2019-01-08T08:02:55.468Z,8.97
2019-01-08T08:06:58.894Z,8.43
2019-01-08T08:11:02.308Z,8.97
2019-01-08T08:15:06.739Z,10.70
2019-01-08T08:19:10.164Z,13.83
2019-01-08T08:23:13.591Z,8.33
2019-01-08T08:27:16.999Z,9.00
2019-01-08T08:31:20.431Z,10.60
2019-01-08T08:35:23.862Z,8.27
2019-01-08T08:39:27.291Z,11.67
2019-01-08T08:43:30.715Z,8.37
2019-01-08T08:47:34.122Z,9.23
2019-01-08T08:51:37.556Z,5.33
2019-01-08T08:55:40.988Z,8.63
2019-01-08T08:59:44.407Z,9.30
2019-01-08T09:03:47.820Z,8.70
2019-01-08T09:07:51.227Z,6.07
2019-01-08T09:11:54.647Z,8.87
2019-01-08T09:15:58.084Z,10.23
2019-01-08T09:20:01.525Z,13.67
2019-01-08T09:24:04.936Z,14.50
2019-01-08T09:28:08.383Z,10.37
2019-01-08T09:32:11.896Z,6.63
2019-01-08T09:36:15.339Z,6.23
2019-01-08T09:40:18.831Z,6.13
2019-01-08T09:44:22.274Z,6.30
2019-01-08T09:48:25.756Z,6.00
2019-01-08T09:52:29.320Z,7.10
2019-01-08T09:56:32.759Z,7.67
2019-01-08T10:00:42.205Z,7.03
2019-01-08T10:04:45.667Z,5.33
2019-01-08T10:08:49.167Z,4.97
2019-01-08T10:12:52.595Z,6.73
2019-01-08T10:16:56.023Z,5.37
2019-01-08T10:20:59.465Z,6.63
2019-01-08T10:25:03.211Z,7.10
2019-01-08T10:29:06.631Z,5.30
2019-01-08T10:33:10.051Z,5.07
2019-01-08T10:37:13.487Z,5.30
2019-01-08T10:41:16.904Z,9.10
2019-01-08T10:45:20.383Z,6.03
2019-01-08T10:49:23.840Z,11.03
2019-01-08T10:53:27.255Z,7.77
2019-01-08T10:57:30.719Z,4.60
2019-01-08T11:01:40.531Z,5.43
2019-01-08T11:05:39.352Z,9.33
2019-01-08T11:09:42.769Z,4.73
2019-01-08T11:13:46.194Z,9.50
2019-01-08T11:17:49.662Z,8.63
2019-01-08T11:21:53.085Z,7.20
2019-01-08T11:25:56.528Z,6.47
2019-01-08T11:29:59.974Z,5.83
2019-01-08T11:34:03.424Z,7.13
2019-01-08T11:38:06.839Z,5.60
2019-01-08T11:42:10.270Z,8.23
2019-01-08T11:46:13.683Z,5.33
2019-01-08T11:50:17.107Z,6.23
2019-01-08T11:54:20.536Z,8.80
2019-01-08T11:58:23.957Z,5.73
2019-01-08T12:02:27.395Z,3.40
2019-01-08T12:06:30.803Z,8.40
2019-01-08T12:10:34.225Z,6.50
2019-01-08T12:14:37.639Z,6.27
2019-01-08T12:18:41.060Z,5.50
2019-01-08T12:22:44.512Z,5.80
2019-01-08T12:26:47.928Z,9.13
2019-01-08T12:30:51.343Z,4.37
2019-01-08T12:34:54.767Z,6.90
2019-01-08T12:38:58.191Z,5.63
2019-01-08T12:43:01.620Z,5.93
2019-01-08T12:47:05.051Z,5.17
2019-01-08T12:51:08.464Z,5.60
2019-01-08T12:55:13.084Z,7.33
2019-01-08T12:59:16.802Z,6.03
2019-01-08T13:03:20.232Z,5.43
2019-01-08T13:07:23.659Z,3.27
2019-01-08T13:11:28.141Z,5.40
2019-01-08T13:15:31.572Z,5.50
2019-01-08T13:19:35.003Z,4.13
2019-01-08T13:23:38.429Z,3.33
2019-01-08T13:27:41.834Z,4.17
2019-01-08T13:31:45.263Z,5.23
2019-01-08T13:35:48.675Z,5.13
2019-01-08T13:39:52.107Z,4.20
2019-01-08T13:43:55.542Z,6.40
2019-01-08T13:47:58.952Z,4.13
2019-01-08T13:52:02.390Z,1.40
2019-01-08T13:56:05.803Z,1.77
2019-01-08T14:00:09.828Z,3.97
2019-01-08T14:04:13.250Z,3.57
2019-01-08T14:08:16.692Z,5.20
2019-01-08T14:12:20.113Z,2.87
2019-01-08T14:16:23.540Z,2.40
2019-01-08T14:20:26.968Z,3.87
2019-01-08T14:24:31.928Z,3.50
2019-01-08T14:28:35.355Z,3.70
2019-01-08T14:32:40.882Z,2.43
2019-01-08T14:36:44.032Z,3.63
2019-01-08T14:40:47.464Z,3.83
2019-01-08T14:44:50.872Z,3.03
2019-01-08T14:48:54.295Z,3.27
2019-01-08T14:52:57.731Z,2.83
2019-01-08T14:57:01.162Z,3.93
2019-01-08T15:01:04.695Z,4.80
2019-01-08T15:05:08.227Z,4.43
2019-01-08T15:09:11.658Z,4.50
2019-01-08T15:13:15.173Z,4.10
2019-01-08T15:17:18.590Z,4.30
2019-01-08T15:21:21.999Z,3.33
2019-01-08T15:25:25.441Z,8.00
2019-01-08T15:29:28.880Z,8.80
2019-01-08T15:33:32.316Z,6.43
2019-01-08T15:37:35.827Z,6.70
2019-01-08T15:41:39.240Z,9.00
2019-01-08T15:45:42.665Z,7.27
2019-01-08T15:49:46.091Z,6.13
2019-01-08T15:53:49.523Z,9.67
2019-01-08T15:57:52.939Z,6.30
2019-01-08T16:01:56.399Z,7.37
2019-01-08T16:05:59.828Z,8.40
2019-01-08T16:10:04.342Z,4.63
2019-01-08T16:14:07.775Z,10.17
2019-01-08T16:18:11.197Z,7.87
2019-01-08T16:22:14.607Z,5.60
2019-01-08T16:26:18.047Z,7.77
2019-01-08T16:30:21.467Z,21.03
2019-01-08T16:34:24.886Z,6.77
2019-01-08T16:38:28.313Z,7.70
2019-01-08T16:42:31.728Z,7.00
2019-01-08T16:46:35.337Z,7.30
2019-01-08T16:50:38.759Z,7.10
2019-01-08T16:54:42.177Z,8.23
2019-01-08T16:58:45.602Z,6.90
2019-01-08T17:02:49.034Z,10.83
2019-01-08T17:06:52.454Z,7.30
2019-01-08T17:10:55.883Z,6.40
2019-01-08T17:14:59.299Z,14.13
2019-01-08T17:19:02.723Z,8.27
2019-01-08T17:23:06.157Z,8.67
2019-01-08T17:27:09.582Z,12.47
2019-01-08T17:31:13.012Z,10.27
2019-01-08T17:35:16.423Z,8.90
2019-01-08T17:39:19.846Z,11.33
2019-01-08T17:43:23.279Z,10.67
2019-01-08T17:47:26.714Z,9.23
2019-01-08T17:51:30.135Z,10.13
2019-01-08T17:55:33.543Z,6.83
2019-01-08T17:59:37.444Z,8.73
2019-01-08T18:03:42.792Z,7.10
2019-01-08T18:07:46.115Z,5.10
2019-01-08T18:11:49.518Z,9.03
2019-01-08T18:15:52.944Z,11.20
2019-01-08T18:19:56.363Z,6.43
2019-01-08T18:23:59.801Z,7.90
2019-01-08T18:28:03.231Z,7.40
2019-01-08T18:32:06.684Z,11.83
2019-01-08T18:36:10.145Z,8.30
2019-01-08T18:40:13.660Z,6.53
2019-01-08T18:44:17.986Z,12.97
2019-01-08T18:48:21.412Z,11.57
2019-01-08T18:52:24.827Z,8.77
2019-01-08T18:56:28.255Z,7.37
2019-01-08T19:00:31.752Z,7.70
2019-01-08T19:04:35.196Z,10.97
2019-01-08T19:09:14.792Z,13.00
2019-01-08T19:13:18.293Z,8.00
2019-01-08T19:17:21.727Z,3.83
2019-01-08T19:21:25.151Z,6.87
2019-01-08T19:25:28.575Z,6.97
2019-01-08T19:29:31.995Z,8.67
2019-01-08T19:33:35.415Z,7.03
2019-01-08T19:37:38.840Z,7.07
2019-01-08T19:41:42.278Z,8.47
2019-01-08T19:45:45.694Z,8.47
2019-01-08T19:49:50.759Z,10.18
2019-01-08T19:53:54.192Z,10.40
2019-01-08T19:57:57.609Z,6.03
2019-01-08T20:02:01.035Z,12.67
2019-01-08T20:06:04.465Z,9.57
2019-01-08T20:10:07.875Z,10.43
2019-01-08T20:14:11.314Z,14.07
2019-01-08T20:18:14.730Z,9.47
2019-01-08T20:22:18.240Z,7.17
2019-01-08T20:26:21.669Z,11.53
2019-01-08T20:30:25.075Z,9.37
2019-01-08T20:34:28.507Z,8.13
2019-01-08T20:38:31.936Z,11.43
2019-01-08T20:42:35.367Z,4.37
2019-01-08T20:46:38.892Z,9.10
2019-01-08T20:50:42.295Z,10.80
2019-01-08T20:54:45.715Z,10.37
2019-01-08T20:58:49.130Z,7.10
2019-01-08T21:02:52.587Z,6.97
2019-01-08T21:06:56.072Z,7.77
2019-01-08T21:10:59.499Z,12.53
2019-01-08T21:15:02.951Z,5.50
2019-01-08T21:19:06.441Z,7.60
2019-01-08T21:23:10.034Z,11.00
2019-01-08T21:27:13.427Z,8.73
2019-01-08T21:31:16.855Z,9.77
2019-01-08T21:35:20.298Z,8.10
2019-01-08T21:39:24.085Z,6.40
2019-01-08T21:43:27.653Z,9.27
2019-01-08T21:47:34.580Z,7.90
2019-01-08T21:51:38.310Z,9.23
2019-01-08T21:55:41.793Z,5.63
2019-01-08T21:59:46.216Z,11.07
2019-01-08T22:03:49.705Z,8.17
2019-01-08T22:07:53.388Z,7.70
2019-01-08T22:11:56.884Z,5.97
2019-01-08T22:16:00.308Z,6.57
2019-01-08T22:20:05.491Z,5.30
2019-01-08T22:24:12.046Z,8.63
2019-01-08T22:28:15.507Z,5.30
2019-01-08T22:32:19.098Z,9.70
2019-01-08T22:36:22.659Z,9.10
2019-01-08T22:40:27.947Z,11.03
2019-01-08T22:44:34.305Z,7.43
2019-01-08T22:48:37.774Z,4.57
2019-01-08T22:52:43.698Z,6.30
2019-01-08T22:56:47.428Z,6.00
2019-01-08T23:00:52.552Z,4.73
2019-01-08T23:04:56.034Z,10.63
2019-01-08T23:08:59.483Z,8.50
2019-01-08T23:13:02.989Z,6.83
2019-01-08T23:17:07.445Z,5.03
2019-01-08T23:21:10.938Z,5.43
2019-01-08T23:25:17.502Z,10.93
2019-01-08T23:29:20.932Z,7.33
2019-01-08T23:33:24.351Z,5.03
2019-01-08T23:37:27.792Z,7.20
2019-01-08T23:41:31.247Z,9.10
2019-01-08T23:45:34.728Z,6.67
2019-01-08T23:49:38.561Z,7.77
2019-01-08T23:53:45.280Z,10.10
2019-01-08T23:57:50.553Z,8.50
